Strona główna
METAR-TAF:

METAR-TAF

Lotnisko :

Port lotniczy Radom-Sadków

Radom, Polska

Szerokość geograficzna: 51-23-21N, Długość geograficzna: 21-12-49E, wysokość: 186 m

Aktualna obserwacja pogody

Raport powstał 25 minut temu, godzina 09:30 UTC
Wiatr 3 kt z kierunków zmiennych
Temperatura 26°C
Wilgotność 65%
Ciśnienie 1019 hPa
Widzialność 10 km lub więcej
Rozproszone chmury na wysokości 3600 ft

METAR: EPRA 180930Z VRB03KT 9999 SCT036 26/19 Q1019

czas: 11:55 (09:55 UTC)

Prognoza

Raport powstał 1 godzina i 25 minut temu, godzina 08:30 UTC
Prognoza ważna od 18 godzina 09 UTC do 18 godzina 18 UTC
Wiatr 3 kt z kierunków zmiennych
Widzialność 10 km lub więcej
Brak chmur poniżej 1500 m i brak chmur cumulonimbus
Prawdopodobieństwo 30% :
Przejściowo
od 18 godzina 14 UTC do 18 godzina 18 UTC
Widzialność: 5000 m
Przerywane chmury na wysokości 3000 ft, Cumulonimbus.
przelotny opad deszczu, burza, deszcz

TAF: EPRA 180830Z 1809/1818 VRB03KT CAVOK PROB30 TEMPO 1814/1818 5000 SHRA TSRA BKN030CB

Obserwacja i prognoza pogody dla ponad 4000 lotnisk (raport METAR i TAF).

Dostępne stacje oznaczono żółtymi i czerwonymi punktami na mapie.

Najedź kursorem aby zobaczyć nazwę stacji.

Kliknij aby zobaczyć obserwacje i prognozy pogody.

Aby zmienić mapę: kliknij na zielony przycisk z czarnym krzyżykiem, aby powiększyć; na zielony przycisk z myślnikiem, aby pomniejszyć; na zielone strzałki, aby przejść do map sąsiednich.


METAR-TAF: